Flugplatz Gunzenhausen-Reutberg

Für EDMH sind keine METAR/TAF Berichte vorhanden.
Es werden die Flugwettermeldungen vom Flugplatz Ansbach Army Heliport in 24 km Entfernung angezeigt.

Bericht für ETEB

vom 23.05. um 17:56 UTC

Wind 4 kt aus 20°

Sichtweite 10 km oder mehr

keine Wolken

Temperatur 16.7°C

Taupunkt 5.6°C

Luftfeuchtigkeit 48%

Luftdruck 1018 hPa

ETEB 231756Z AUTO 02004KT 9999 CLR 17/06 A3005 RMK AO2 SLP186 T01670056 10188 20163 57007 $

Prognose für ETEB

vom 23.05. um 13:13 UTC

Zwischen 13:00 UTC und 17:00 UTC

variable Windrichtung mit 6 kt

Sichtweite 10 km oder mehr

gering bewölkt in 5000 ft


Am 24.05. zwischen 17:00 und 18:00 UTC übergehend zu

variable Windrichtung mit 6 kt

Sichtweite 10 km oder mehr

aufgebrochene Bewölkung in 4000 ft

TAF ETEB 231313Z 2313/2419 VRB06KT 9999 FEW050 QNH3000INS BECMG 2417/2418 VRB06KT 9999 BKN040 QNH2997INS TX22/2315Z TN12/2403Z
Impressum